createdAt,value
2018-02-10T00:00:03.028Z,90.92
2018-02-10T00:02:30.562Z,90.34
2018-02-10T00:04:58.101Z,89.84
2018-02-10T00:07:25.677Z,89.49
2018-02-10T00:09:53.236Z,89.00
2018-02-10T00:12:20.801Z,89.29
2018-02-10T00:14:48.326Z,89.04
2018-02-10T00:17:15.846Z,88.38
2018-02-10T00:19:43.371Z,88.42
2018-02-10T00:22:11.008Z,89.07
2018-02-10T00:24:38.527Z,89.24
2018-02-10T00:27:06.086Z,89.56
2018-02-10T00:29:33.616Z,90.30
2018-02-10T00:32:01.152Z,90.14
2018-02-10T00:34:28.691Z,90.43
2018-02-10T00:36:56.217Z,90.73
2018-02-10T00:39:23.756Z,90.84
2018-02-10T00:41:51.305Z,90.72
2018-02-10T00:44:18.856Z,90.65
2018-02-10T00:46:46.358Z,90.06
2018-02-10T00:49:13.886Z,90.04
2018-02-10T00:51:41.404Z,89.79
2018-02-10T00:54:09.021Z,89.31
2018-02-10T00:56:36.561Z,89.53
2018-02-10T00:59:04.091Z,89.69
2018-02-10T01:01:31.642Z,89.75
2018-02-10T01:03:59.165Z,89.46
2018-02-10T01:06:26.691Z,89.42
2018-02-10T01:08:54.221Z,89.60
2018-02-10T01:11:21.757Z,89.58
2018-02-10T01:13:49.297Z,89.46
2018-02-10T01:16:16.840Z,89.89
2018-02-10T01:18:44.366Z,89.97
2018-02-10T01:21:11.882Z,89.84
2018-02-10T01:23:39.407Z,89.33
2018-02-10T01:26:06.961Z,89.49
2018-02-10T01:28:34.513Z,89.77
2018-02-10T01:31:02.057Z,90.30
2018-02-10T01:33:29.603Z,89.03
2018-02-10T01:35:57.137Z,89.26
2018-02-10T01:38:24.691Z,89.25
2018-02-10T01:40:52.211Z,89.11
2018-02-10T01:43:19.947Z,88.57
2018-02-10T01:45:47.492Z,88.33
2018-02-10T01:48:15.043Z,87.83
2018-02-10T01:50:42.588Z,90.37
2018-02-10T01:53:10.096Z,91.23
2018-02-10T01:55:37.623Z,90.84
2018-02-10T01:58:05.184Z,90.06
2018-02-10T02:00:32.728Z,89.76
2018-02-10T02:03:00.263Z,89.15
2018-02-10T02:05:27.788Z,89.65
2018-02-10T02:07:55.326Z,89.59
2018-02-10T02:10:22.946Z,89.22
2018-02-10T02:12:50.467Z,89.43
2018-02-10T02:15:17.991Z,89.24
2018-02-10T02:17:45.577Z,89.74
2018-02-10T02:20:13.166Z,89.69
2018-02-10T02:22:40.759Z,89.47
2018-02-10T02:25:08.257Z,89.40
2018-02-10T02:27:35.771Z,89.86
2018-02-10T02:30:03.308Z,90.41
2018-02-10T02:32:30.831Z,91.50
2018-02-10T02:34:58.443Z,90.83
2018-02-10T02:37:25.962Z,89.72
2018-02-10T02:39:53.486Z,89.72
2018-02-10T02:42:21.073Z,90.46
2018-02-10T02:44:48.591Z,90.69
2018-02-10T02:47:16.146Z,90.43
2018-02-10T02:49:43.671Z,89.93
2018-02-10T02:52:11.243Z,89.62
2018-02-10T02:54:38.772Z,89.70
2018-02-10T02:57:06.310Z,90.83
2018-02-10T02:59:33.846Z,91.47
2018-02-10T03:02:01.385Z,91.58
2018-02-10T03:04:28.898Z,90.93
2018-02-10T03:06:56.403Z,89.55
2018-02-10T03:09:23.953Z,89.46
2018-02-10T03:11:51.481Z,90.23
2018-02-10T03:14:19.022Z,90.94
2018-02-10T03:16:46.526Z,90.59
2018-02-10T03:19:14.105Z,89.92
2018-02-10T03:21:41.760Z,90.19
2018-02-10T03:24:09.277Z,90.62
2018-02-10T03:26:36.805Z,90.54
2018-02-10T03:29:04.310Z,90.15
2018-02-10T03:31:31.816Z,88.99
2018-02-10T03:33:59.320Z,89.66
2018-02-10T03:36:26.843Z,89.51
2018-02-10T03:38:54.376Z,89.51
2018-02-10T03:41:21.905Z,91.39
2018-02-10T03:43:49.632Z,91.61
2018-02-10T03:46:17.158Z,91.47
2018-02-10T03:48:44.677Z,90.44
2018-02-10T03:51:12.191Z,89.54
2018-02-10T03:53:39.707Z,89.51
2018-02-10T03:56:07.265Z,89.81
2018-02-10T03:58:34.785Z,90.37
2018-02-10T04:01:02.332Z,90.33
2018-02-10T04:03:29.852Z,90.17
2018-02-10T04:05:57.518Z,90.24
2018-02-10T04:08:25.032Z,92.14
2018-02-10T04:10:52.567Z,91.98
2018-02-10T04:13:20.111Z,91.20
2018-02-10T04:15:47.630Z,91.18
2018-02-10T04:18:15.196Z,91.23
2018-02-10T04:20:42.732Z,91.03
2018-02-10T04:23:10.257Z,90.26
2018-02-10T04:25:37.807Z,91.04
2018-02-10T04:28:05.381Z,91.49
2018-02-10T04:30:32.900Z,91.13
2018-02-10T04:33:00.409Z,91.16
2018-02-10T04:35:27.956Z,91.07
2018-02-10T04:37:55.531Z,90.90
2018-02-10T04:40:23.066Z,90.83
2018-02-10T04:42:50.590Z,92.16
2018-02-10T04:45:18.113Z,92.56
2018-02-10T04:47:45.620Z,92.47
2018-02-10T04:50:13.183Z,91.87
2018-02-10T04:52:40.713Z,90.79
2018-02-10T04:55:08.226Z,90.83
2018-02-10T04:57:35.745Z,91.60
2018-02-10T05:00:03.274Z,91.94
2018-02-10T05:02:30.803Z,92.07
2018-02-10T05:04:58.322Z,92.02
2018-02-10T05:07:25.855Z,91.65
2018-02-10T05:09:53.387Z,90.84
2018-02-10T05:12:20.938Z,91.07
2018-02-10T05:14:48.453Z,92.42
2018-02-10T05:17:16.444Z,93.17
2018-02-10T05:19:44.082Z,93.14
2018-02-10T05:22:11.596Z,93.31
2018-02-10T05:24:39.108Z,93.61
2018-02-10T05:27:06.638Z,93.15
2018-02-10T05:29:34.153Z,92.34
2018-02-10T05:32:01.673Z,91.84
2018-02-10T05:34:29.228Z,91.21
2018-02-10T05:36:56.767Z,90.64
2018-02-10T05:39:24.867Z,90.32
2018-02-10T05:41:52.372Z,90.93
2018-02-10T05:44:19.912Z,91.11
2018-02-10T05:46:47.440Z,90.27
2018-02-10T05:49:14.998Z,90.12
2018-02-10T05:51:42.543Z,90.51
2018-02-10T05:54:10.061Z,90.12
2018-02-10T05:56:37.612Z,90.82
2018-02-10T05:59:05.136Z,91.17
2018-02-10T06:01:32.709Z,91.53
2018-02-10T06:04:00.232Z,91.88
2018-02-10T06:06:27.779Z,92.48
2018-02-10T06:08:55.326Z,92.79
2018-02-10T06:11:22.943Z,92.68
2018-02-10T06:13:50.486Z,92.52
2018-02-10T06:16:18.013Z,92.19
2018-02-10T06:18:45.543Z,91.16
2018-02-10T06:21:13.286Z,90.44
2018-02-10T06:23:40.809Z,90.25
2018-02-10T06:26:08.338Z,90.10
2018-02-10T06:28:35.853Z,90.10
2018-02-10T06:31:03.524Z,90.15
2018-02-10T06:33:31.038Z,90.31
2018-02-10T06:35:59.441Z,90.39
2018-02-10T06:38:26.979Z,92.32
2018-02-10T06:40:54.573Z,93.45
2018-02-10T06:43:22.127Z,94.07
2018-02-10T06:45:49.655Z,93.69
2018-02-10T06:48:17.209Z,93.34
2018-02-10T06:50:44.778Z,92.50
2018-02-10T06:53:12.293Z,91.80
2018-02-10T06:55:39.824Z,91.07
2018-02-10T06:58:07.360Z,90.79
2018-02-10T07:00:34.884Z,91.81
2018-02-10T07:03:02.399Z,93.18
2018-02-10T07:05:30.067Z,93.84
2018-02-10T07:07:57.592Z,93.58
2018-02-10T07:10:25.109Z,92.71
2018-02-10T07:12:52.627Z,92.12
2018-02-10T07:15:20.167Z,91.40
2018-02-10T07:17:47.734Z,90.82
2018-02-10T07:20:15.266Z,90.40
2018-02-10T07:22:42.782Z,90.62
2018-02-10T07:25:10.287Z,91.07
2018-02-10T07:27:37.819Z,90.85
2018-02-10T07:30:05.388Z,89.83
2018-02-10T07:32:32.916Z,89.44
2018-02-10T07:35:00.447Z,89.66
2018-02-10T07:37:27.964Z,89.64
2018-02-10T07:39:55.509Z,89.42
2018-02-10T07:42:23.023Z,89.10
2018-02-10T07:44:50.576Z,89.47
2018-02-10T07:47:18.128Z,89.82
2018-02-10T07:49:45.651Z,89.32
2018-02-10T07:52:13.192Z,88.72
2018-02-10T07:54:40.737Z,88.35
2018-02-10T07:57:08.262Z,87.75
2018-02-10T07:59:35.806Z,86.76
2018-02-10T08:02:03.348Z,86.25
2018-02-10T08:04:30.977Z,85.79
2018-02-10T08:06:58.543Z,85.79
2018-02-10T08:09:26.096Z,86.01
2018-02-10T08:11:53.701Z,87.33
2018-02-10T08:14:21.232Z,87.00
2018-02-10T08:16:48.782Z,87.41
2018-02-10T08:19:16.294Z,87.20
2018-02-10T08:21:43.848Z,86.66
2018-02-10T08:24:11.408Z,85.85
2018-02-10T08:26:38.934Z,87.86
2018-02-10T08:29:06.476Z,88.31
2018-02-10T08:31:34.038Z,88.70
2018-02-10T08:34:01.557Z,89.24
2018-02-10T08:36:29.096Z,89.41
2018-02-10T08:38:56.684Z,89.14
2018-02-10T08:41:24.212Z,89.04
2018-02-10T08:43:51.968Z,88.23
2018-02-10T08:46:19.501Z,88.13
2018-02-10T08:48:47.046Z,87.44
2018-02-10T08:51:14.586Z,86.33
2018-02-10T08:53:42.109Z,85.42
2018-02-10T08:56:09.678Z,83.48
2018-02-10T08:58:37.245Z,83.90
2018-02-10T09:01:04.764Z,84.54
2018-02-10T09:03:32.295Z,83.62
2018-02-10T09:05:59.826Z,82.65
2018-02-10T09:08:27.420Z,84.22
2018-02-10T09:10:54.942Z,83.90
2018-02-10T09:13:22.475Z,83.70
2018-02-10T09:15:50.608Z,83.84
2018-02-10T09:18:18.157Z,82.89
2018-02-10T09:20:45.702Z,82.11
2018-02-10T09:23:13.206Z,79.79
2018-02-10T09:25:40.757Z,79.24
2018-02-10T09:28:08.326Z,78.00
2018-02-10T09:30:35.977Z,77.54
2018-02-10T09:33:03.500Z,76.76
2018-02-10T09:35:31.044Z,75.59
2018-02-10T09:37:58.601Z,76.44
2018-02-10T09:40:26.163Z,76.65
2018-02-10T09:42:53.723Z,77.89
2018-02-10T09:45:21.393Z,77.88
2018-02-10T09:47:48.927Z,79.31
2018-02-10T09:50:16.473Z,78.86
2018-02-10T09:52:44.006Z,77.93
2018-02-10T09:55:11.543Z,77.15
2018-02-10T09:57:39.073Z,78.42
2018-02-10T10:00:06.614Z,78.60
2018-02-10T10:02:34.379Z,79.79
2018-02-10T10:05:01.897Z,78.75
2018-02-10T10:07:29.501Z,78.35
2018-02-10T10:09:57.022Z,78.78
2018-02-10T10:12:24.568Z,78.65
2018-02-10T10:14:52.123Z,77.90
2018-02-10T10:17:19.681Z,76.73
2018-02-10T10:19:47.263Z,76.29
2018-02-10T10:22:14.823Z,77.59
2018-02-10T10:24:42.472Z,76.13
2018-02-10T10:27:10.004Z,75.11
2018-02-10T10:29:37.613Z,76.65
2018-02-10T10:32:05.143Z,76.01
2018-02-10T10:34:32.694Z,75.99
2018-02-10T10:37:00.241Z,73.03
2018-02-10T10:39:27.834Z,73.41
2018-02-10T10:41:55.388Z,75.85
2018-02-10T10:44:22.932Z,77.73
2018-02-10T10:46:50.563Z,78.11
2018-02-10T10:49:18.114Z,77.34
2018-02-10T10:51:45.640Z,74.46
2018-02-10T10:54:13.213Z,75.66
2018-02-10T10:56:40.772Z,73.12
2018-02-10T10:59:08.593Z,71.20
2018-02-10T11:01:36.142Z,69.90
2018-02-10T11:04:03.676Z,72.90
2018-02-10T11:06:31.278Z,73.10
2018-02-10T11:08:58.889Z,71.84
2018-02-10T11:11:26.417Z,74.67
2018-02-10T11:13:53.968Z,73.03
2018-02-10T11:16:21.499Z,73.18
2018-02-10T11:18:49.039Z,73.36
2018-02-10T11:21:16.578Z,73.23
2018-02-10T11:23:44.257Z,73.73
2018-02-10T11:26:11.813Z,70.92
2018-02-10T11:28:39.334Z,69.84
2018-02-10T11:31:06.872Z,72.67
2018-02-10T11:33:34.430Z,71.13
2018-02-10T11:36:01.994Z,69.76
2018-02-10T11:38:29.539Z,70.57
2018-02-10T11:40:57.089Z,70.23
2018-02-10T11:43:24.652Z,70.81
2018-02-10T11:45:52.203Z,71.54
2018-02-10T11:48:19.723Z,72.05
2018-02-10T11:50:47.326Z,70.74
2018-02-10T11:53:15.094Z,71.69
2018-02-10T11:55:42.740Z,70.91
2018-02-10T11:58:10.294Z,72.14
2018-02-10T12:00:37.818Z,72.38
2018-02-10T12:03:05.347Z,72.99
2018-02-10T12:05:32.944Z,71.55
2018-02-10T12:08:00.484Z,70.62
2018-02-10T12:10:28.019Z,68.74
2018-02-10T12:12:55.642Z,67.84
2018-02-10T12:15:23.189Z,68.36
2018-02-10T12:17:50.727Z,69.90
2018-02-10T12:20:18.379Z,69.66
2018-02-10T12:22:45.912Z,70.39
2018-02-10T12:25:13.464Z,69.08
2018-02-10T12:27:41.002Z,70.82
2018-02-10T12:30:08.512Z,70.06
2018-02-10T12:32:36.065Z,70.04
2018-02-10T12:35:03.596Z,69.56
2018-02-10T12:37:31.122Z,69.84
2018-02-10T12:39:58.676Z,71.46
2018-02-10T12:42:26.593Z,70.89
2018-02-10T12:44:54.634Z,71.48
2018-02-10T12:47:22.384Z,70.99
2018-02-10T12:49:50.281Z,71.46
2018-02-10T12:52:18.004Z,71.31
2018-02-10T12:54:46.195Z,69.70
2018-02-10T12:57:13.712Z,70.13
2018-02-10T12:59:41.242Z,69.92
2018-02-10T13:02:09.783Z,69.12
2018-02-10T13:04:37.328Z,69.13
2018-02-10T13:07:04.895Z,70.75
2018-02-10T13:09:32.542Z,69.46
2018-02-10T13:12:00.274Z,70.27
2018-02-10T13:14:28.231Z,70.61
2018-02-10T13:16:55.797Z,70.71
2018-02-10T13:19:23.528Z,69.92
2018-02-10T13:21:51.282Z,71.49
2018-02-10T13:24:19.297Z,71.08
2018-02-10T13:26:47.056Z,70.88
2018-02-10T13:29:14.765Z,70.40
2018-02-10T13:31:42.322Z,70.31
2018-02-10T13:34:10.129Z,70.94
2018-02-10T13:36:37.681Z,69.93
2018-02-10T13:39:05.249Z,71.29
2018-02-10T13:41:33.902Z,71.48
2018-02-10T13:44:01.439Z,70.67
2018-02-10T13:46:28.969Z,72.42
2018-02-10T13:48:56.487Z,71.58
2018-02-10T13:51:24.027Z,72.07
2018-02-10T13:53:51.579Z,71.62
2018-02-10T13:56:19.218Z,72.16
2018-02-10T13:58:46.728Z,71.86
2018-02-10T14:01:14.303Z,72.45
2018-02-10T14:03:41.848Z,72.24
2018-02-10T14:06:09.365Z,72.33
2018-02-10T14:08:37.027Z,73.22
2018-02-10T14:11:04.568Z,71.99
2018-02-10T14:13:32.151Z,71.73
2018-02-10T14:15:59.672Z,72.40
2018-02-10T14:18:27.378Z,71.70
2018-02-10T14:20:54.923Z,72.21
2018-02-10T14:23:22.452Z,72.31
2018-02-10T14:25:50.892Z,72.22
2018-02-10T14:28:18.419Z,72.52
2018-02-10T14:30:45.964Z,72.60
2018-02-10T14:33:13.510Z,72.12
2018-02-10T14:35:41.046Z,71.30
2018-02-10T14:38:08.672Z,71.90
2018-02-10T14:40:36.183Z,72.10
2018-02-10T14:43:03.734Z,71.30
2018-02-10T14:45:31.281Z,71.42
2018-02-10T14:47:58.824Z,71.71
2018-02-10T14:50:26.359Z,71.34
2018-02-10T14:52:53.913Z,72.32
2018-02-10T14:55:21.531Z,70.61
2018-02-10T14:57:49.058Z,70.85
2018-02-10T15:00:16.592Z,71.33
2018-02-10T15:02:44.103Z,70.32
2018-02-10T15:05:11.697Z,71.47
2018-02-10T15:07:39.244Z,71.35
2018-02-10T15:10:06.962Z,70.27
2018-02-10T15:12:34.499Z,70.95
2018-02-10T15:15:02.364Z,71.63
2018-02-10T15:17:30.067Z,70.89
2018-02-10T15:19:57.738Z,69.89
2018-02-10T15:22:25.382Z,70.94
2018-02-10T15:24:53.141Z,71.89
2018-02-10T15:27:20.714Z,71.26
2018-02-10T15:30:00.129Z,71.32
2018-02-10T15:32:39.585Z,70.85
2018-02-10T15:35:07.109Z,70.70
2018-02-10T15:37:34.641Z,70.91
2018-02-10T15:40:02.288Z,70.94
2018-02-10T15:42:29.896Z,71.52
2018-02-10T15:44:57.431Z,70.99
2018-02-10T15:47:24.976Z,72.19
2018-02-10T15:49:52.488Z,72.43
2018-02-10T15:52:20.031Z,72.01
2018-02-10T15:54:47.621Z,71.21
2018-02-10T15:57:15.238Z,71.64
2018-02-10T15:59:42.835Z,71.19
2018-02-10T16:02:10.720Z,71.43
2018-02-10T16:04:38.259Z,72.96
2018-02-10T16:07:05.952Z,71.62
2018-02-10T16:09:33.538Z,71.96
2018-02-10T16:12:01.248Z,72.86
2018-02-10T16:14:29.220Z,72.23
2018-02-10T16:16:57.117Z,72.63
2018-02-10T16:19:24.893Z,72.91
2018-02-10T16:21:52.615Z,74.16
2018-02-10T16:24:20.632Z,75.78
2018-02-10T16:26:48.619Z,76.00
2018-02-10T16:29:16.453Z,76.46
2018-02-10T16:31:44.328Z,76.55
2018-02-10T16:34:12.258Z,77.03
2018-02-10T16:36:40.143Z,77.03
2018-02-10T16:39:08.216Z,77.46
2018-02-10T16:41:35.930Z,79.39
2018-02-10T16:44:03.675Z,80.07
2018-02-10T16:46:31.387Z,79.81
2018-02-10T16:48:59.247Z,79.63
2018-02-10T16:51:26.799Z,80.32
2018-02-10T16:53:54.450Z,81.21
2018-02-10T16:56:22.042Z,81.55
2018-02-10T16:58:49.584Z,82.07
2018-02-10T17:01:17.123Z,82.72
2018-02-10T17:03:44.752Z,81.57
2018-02-10T17:06:12.287Z,81.67
2018-02-10T17:08:39.811Z,82.78
2018-02-10T17:11:07.457Z,84.03
2018-02-10T17:13:35.243Z,83.70
2018-02-10T17:16:03.178Z,83.40
2018-02-10T17:18:30.883Z,83.06
2018-02-10T17:20:58.510Z,83.04
2018-02-10T17:23:26.563Z,83.10
2018-02-10T17:25:54.113Z,83.89
2018-02-10T17:28:21.654Z,84.46
2018-02-10T17:30:49.797Z,85.01
2018-02-10T17:33:17.347Z,84.56
2018-02-10T17:35:44.892Z,84.30
2018-02-10T17:38:12.458Z,85.15
2018-02-10T17:40:40.049Z,85.64
2018-02-10T17:43:07.701Z,85.58
2018-02-10T17:45:35.459Z,85.60
2018-02-10T17:48:02.977Z,85.42
2018-02-10T17:50:30.528Z,84.29
2018-02-10T17:52:58.067Z,85.07
2018-02-10T17:55:25.641Z,85.02
2018-02-10T17:57:53.188Z,84.86
2018-02-10T18:00:20.984Z,84.35
2018-02-10T18:02:48.529Z,84.32
2018-02-10T18:05:16.073Z,84.95
2018-02-10T18:07:43.690Z,84.84
2018-02-10T18:10:11.323Z,85.00
2018-02-10T18:12:38.903Z,85.09
2018-02-10T18:15:06.479Z,85.17
2018-02-10T18:17:34.004Z,85.29
2018-02-10T18:20:01.556Z,85.60
2018-02-10T18:22:29.124Z,85.12
2018-02-10T18:24:56.660Z,84.30
2018-02-10T18:27:24.614Z,84.73
2018-02-10T18:29:52.214Z,84.63
2018-02-10T18:32:19.880Z,84.89
2018-02-10T18:34:47.435Z,85.02
2018-02-10T18:37:15.028Z,84.98
2018-02-10T18:39:42.609Z,85.10
2018-02-10T18:42:10.921Z,85.03
2018-02-10T18:44:38.476Z,85.34
2018-02-10T18:47:06.071Z,84.84
2018-02-10T18:49:33.598Z,84.81
2018-02-10T18:52:01.139Z,82.47
2018-02-10T18:54:28.747Z,81.78
2018-02-10T18:56:56.334Z,82.82
2018-02-10T18:59:24.205Z,82.29
2018-02-10T19:01:51.726Z,82.22
2018-02-10T19:04:19.363Z,80.23
2018-02-10T19:06:47.024Z,80.57
2018-02-10T19:09:14.600Z,81.09
2018-02-10T19:11:42.138Z,79.84
2018-02-10T19:14:09.714Z,81.43
2018-02-10T19:16:37.244Z,80.55
2018-02-10T19:19:05.277Z,80.79
2018-02-10T19:21:32.810Z,80.50
2018-02-10T19:24:00.355Z,79.90
2018-02-10T19:26:27.914Z,81.20
2018-02-10T19:28:55.622Z,81.04
2018-02-10T19:31:23.155Z,81.70
2018-02-10T19:33:50.678Z,81.14
2018-02-10T19:36:18.218Z,81.78
2018-02-10T19:38:45.782Z,82.38
2018-02-10T19:41:13.304Z,82.74
2018-02-10T19:43:40.848Z,81.52
2018-02-10T19:46:08.420Z,81.93
2018-02-10T19:48:35.954Z,81.78
2018-02-10T19:51:03.506Z,82.45
2018-02-10T19:53:31.040Z,83.95
2018-02-10T19:55:58.588Z,82.09
2018-02-10T19:58:26.122Z,80.82
2018-02-10T20:00:53.752Z,81.11
2018-02-10T20:03:21.294Z,80.70
2018-02-10T20:05:49.061Z,79.79
2018-02-10T20:08:16.614Z,80.45
2018-02-10T20:10:44.163Z,80.93
2018-02-10T20:13:11.731Z,80.49
2018-02-10T20:15:39.277Z,81.39
2018-02-10T20:18:06.840Z,82.38
2018-02-10T20:20:34.403Z,82.95
2018-02-10T20:23:01.932Z,83.57
2018-02-10T20:25:29.462Z,84.18
2018-02-10T20:27:57.097Z,84.75
2018-02-10T20:30:24.662Z,85.01
2018-02-10T20:32:52.206Z,84.51
2018-02-10T20:35:20.041Z,84.15
2018-02-10T20:37:47.587Z,84.87
2018-02-10T20:40:15.221Z,83.89
2018-02-10T20:42:42.752Z,86.12
2018-02-10T20:45:10.273Z,85.78
2018-02-10T20:47:37.797Z,85.52
2018-02-10T20:50:05.361Z,85.01
2018-02-10T20:52:32.996Z,85.27
2018-02-10T20:55:00.545Z,84.58
2018-02-10T20:57:28.148Z,84.63
2018-02-10T20:59:55.705Z,84.04
2018-02-10T21:02:23.262Z,82.85
2018-02-10T21:04:50.793Z,84.04
2018-02-10T21:07:18.315Z,82.39
2018-02-10T21:09:45.881Z,81.60
2018-02-10T21:12:13.581Z,82.12
2018-02-10T21:14:41.140Z,83.05
2018-02-10T21:17:08.679Z,82.22
2018-02-10T21:19:36.229Z,81.98
2018-02-10T21:22:03.768Z,80.32
2018-02-10T21:24:31.297Z,79.62
2018-02-10T21:26:59.083Z,79.88
2018-02-10T21:29:26.669Z,80.39
2018-02-10T21:31:54.207Z,81.43
2018-02-10T21:34:21.756Z,80.37
2018-02-10T21:36:49.268Z,79.91
2018-02-10T21:39:16.792Z,80.23
2018-02-10T21:41:44.333Z,80.02
2018-02-10T21:44:11.874Z,80.45
2018-02-10T21:46:39.407Z,80.08
2018-02-10T21:49:06.959Z,79.29
2018-02-10T21:51:34.502Z,79.25
2018-02-10T21:54:02.033Z,79.58
2018-02-10T21:56:29.622Z,79.74
2018-02-10T21:58:57.136Z,79.50
2018-02-10T22:01:24.657Z,79.54
2018-02-10T22:03:52.165Z,79.27
2018-02-10T22:06:19.686Z,79.12
2018-02-10T22:08:47.206Z,79.80
2018-02-10T22:11:14.724Z,79.65
2018-02-10T22:13:42.255Z,79.22
2018-02-10T22:16:09.839Z,78.68
2018-02-10T22:18:37.373Z,79.07
2018-02-10T22:21:04.903Z,79.26
2018-02-10T22:23:32.431Z,79.37
2018-02-10T22:25:59.959Z,79.67
2018-02-10T22:28:27.493Z,79.87
2018-02-10T22:30:55.024Z,80.51
2018-02-10T22:33:22.568Z,81.79
2018-02-10T22:35:50.181Z,82.13
2018-02-10T22:38:17.715Z,81.82
2018-02-10T22:40:45.247Z,80.99
2018-02-10T22:43:12.792Z,81.35
2018-02-10T22:45:40.363Z,81.08
2018-02-10T22:48:07.900Z,82.47
2018-02-10T22:50:35.437Z,82.45
2018-02-10T22:53:02.952Z,82.35
2018-02-10T22:55:30.605Z,83.87
2018-02-10T22:57:58.126Z,84.55
2018-02-10T23:00:25.659Z,84.29
2018-02-10T23:02:53.384Z,83.25
2018-02-10T23:05:20.924Z,82.29
2018-02-10T23:07:48.469Z,82.55
2018-02-10T23:10:16.066Z,82.79
2018-02-10T23:12:43.583Z,82.52
2018-02-10T23:15:11.141Z,82.88
2018-02-10T23:17:38.682Z,82.53
2018-02-10T23:20:06.239Z,82.21
2018-02-10T23:22:33.779Z,82.49
2018-02-10T23:25:01.317Z,82.46
2018-02-10T23:27:28.863Z,82.32
2018-02-10T23:29:56.387Z,82.06
2018-02-10T23:32:23.929Z,81.93
2018-02-10T23:34:51.486Z,81.44
2018-02-10T23:37:19.029Z,80.80
2018-02-10T23:39:46.548Z,80.98
2018-02-10T23:42:14.085Z,81.61
2018-02-10T23:44:41.604Z,80.88
2018-02-10T23:47:09.148Z,81.01
2018-02-10T23:49:36.684Z,80.57
2018-02-10T23:52:04.223Z,80.86
2018-02-10T23:54:31.740Z,81.08
2018-02-10T23:56:59.252Z,81.33
2018-02-10T23:59:26.793Z,81.98
